Time;durP1;ratioP1;P1;durP2;ratioP2;P2;SDS_P1;SDS_P2;PMS_P1;PMS_P2;Temp;Humidity;BMP_temperature;BMP_pressure;BME280_temperature;BME280_humidity;BME280_pressure;Samples;Min_cycle;Max_cycle;Signal;HPM_P1;HPM_P2
2023/10/14 00:01:34;;;;;;;0.68;0.10;;;;;;;;;;5263347;28;20079;-74
2023/10/14 00:04:09;;;;;;;1.90;0.47;;;;;;;;;;5264031;28;20032;-75
2023/10/14 00:06:44;;;;;;;1.80;0.10;;;;;;;;;;5263347;28;20021;-76
2023/10/14 00:09:17;;;;;;;1.70;0.10;;;;;;;;;;5263540;28;20013;-76
2023/10/14 00:11:54;;;;;;;1.20;0.10;;;;;;;;;;5261244;28;20105;-77
2023/10/14 00:14:25;;;;;;;1.05;0.10;;;;;;;;;;5261009;28;20048;-75
2023/10/14 00:16:57;;;;;;;0.43;0.10;;;;;;;;;;5261641;28;20029;-74
2023/10/14 00:19:28;;;;;;;0.50;0.00;;;;;;;;;;5261490;28;20020;-75
2023/10/14 00:22:00;;;;;;;0.82;0.10;;;;;;;;;;5260721;28;20874;-75
2023/10/14 00:24:35;;;;;;;1.88;0.10;;;;;;;;;;5261594;28;20051;-75
2023/10/14 00:27:07;;;;;;;1.83;0.10;;;;;;;;;;5262676;28;20024;-75
2023/10/14 00:29:39;;;;;;;0.55;0.00;;;;;;;;;;5263612;28;20464;-77
2023/10/14 00:32:10;;;;;;;2.83;0.20;;;;;;;;;;5263103;28;20045;-74
2023/10/14 00:34:42;;;;;;;0.60;0.10;;;;;;;;;;5262469;28;20021;-74
2023/10/14 00:37:14;;;;;;;0.50;0.00;;;;;;;;;;5263260;28;20423;-74
2023/10/14 00:39:45;;;;;;;1.10;0.10;;;;;;;;;;5263049;28;20025;-74
2023/10/14 00:42:16;;;;;;;0.93;0.10;;;;;;;;;;5262691;28;20290;-74
2023/10/14 00:44:47;;;;;;;0.40;0.10;;;;;;;;;;5262775;28;20313;-75
2023/10/14 00:47:18;;;;;;;1.70;0.03;;;;;;;;;;5263361;28;20028;-75
2023/10/14 00:49:52;;;;;;;1.15;0.10;;;;;;;;;;5261780;28;20263;-75
2023/10/14 00:52:26;;;;;;;0.93;0.10;;;;;;;;;;5263152;28;20541;-76
2023/10/14 00:54:58;;;;;;;0.50;0.10;;;;;;;;;;5262374;28;20048;-76
2023/10/14 00:57:38;;;;;;;2.20;0.20;;;;;;;;;;5262608;28;20048;-76
2023/10/14 01:00:11;;;;;;;0.80;0.10;;;;;;;;;;5262718;28;20349;-76
2023/10/14 01:02:45;;;;;;;0.82;0.20;;;;;;;;;;5262123;28;20027;-77
2023/10/14 01:05:19;;;;;;;2.47;0.13;;;;;;;;;;5261634;28;20061;-76
2023/10/14 01:07:50;;;;;;;1.27;0.20;;;;;;;;;;5262330;28;20406;-77
2023/10/14 01:10:24;;;;;;;5.13;0.20;;;;;;;;;;5261802;28;20100;-77
2023/10/14 01:12:56;;;;;;;1.17;0.20;;;;;;;;;;5262601;28;20094;-76
2023/10/14 01:15:31;;;;;;;0.50;0.20;;;;;;;;;;5262510;28;20017;-76
2023/10/14 01:18:02;;;;;;;1.80;0.38;;;;;;;;;;5261700;28;20032;-76
2023/10/14 01:20:37;;;;;;;0.95;0.20;;;;;;;;;;5262496;28;20017;-76
2023/10/14 01:23:14;;;;;;;2.90;0.30;;;;;;;;;;5261449;28;20044;-77
2023/10/14 01:25:48;;;;;;;1.95;0.20;;;;;;;;;;5262160;28;20464;-76
2023/10/14 01:28:23;;;;;;;1.83;0.20;;;;;;;;;;5262657;28;20528;-76
2023/10/14 01:31:31;;;;;;;2.47;0.40;;;;;;;;;;5261063;28;20041;-76
2023/10/14 01:34:05;;;;;;;2.25;0.40;;;;;;;;;;5262164;28;20020;-76
2023/10/14 01:36:40;;;;;;;2.92;0.20;;;;;;;;;;5262051;28;20017;-76
2023/10/14 01:39:21;;;;;;;3.05;0.20;;;;;;;;;;5261122;28;20043;-77
2023/10/14 01:41:53;;;;;;;3.75;0.30;;;;;;;;;;5261518;28;20100;-77
2023/10/14 01:44:26;;;;;;;1.92;0.30;;;;;;;;;;5261003;28;20036;-77
2023/10/14 01:46:57;;;;;;;4.63;0.30;;;;;;;;;;5261902;28;20020;-77
2023/10/14 01:49:28;;;;;;;2.13;0.20;;;;;;;;;;5261761;28;20079;-77
2023/10/14 01:51:59;;;;;;;4.18;0.30;;;;;;;;;;5260752;28;20064;-77
2023/10/14 01:54:31;;;;;;;2.60;0.47;;;;;;;;;;5261647;28;20395;-77
2023/10/14 01:57:05;;;;;;;3.10;0.30;;;;;;;;;;5261670;28;20025;-77
2023/10/14 01:59:36;;;;;;;2.63;0.30;;;;;;;;;;5260921;28;20051;-77
2023/10/14 02:02:12;;;;;;;2.30;0.30;;;;;;;;;;5261348;28;20044;-77
2023/10/14 02:04:45;;;;;;;6.78;0.40;;;;;;;;;;5261345;28;20060;-77
2023/10/14 02:07:19;;;;;;;6.38;0.60;;;;;;;;;;5260915;28;20029;-77
2023/10/14 02:09:55;;;;;;;3.88;0.35;;;;;;;;;;5261135;28;20016;-78
2023/10/14 02:12:26;;;;;;;7.18;0.60;;;;;;;;;;5260623;28;20037;-77
2023/10/14 02:14:58;;;;;;;2.67;0.30;;;;;;;;;;5261235;28;20013;-78
2023/10/14 02:17:29;;;;;;;4.63;0.40;;;;;;;;;;5261082;28;20025;-77
2023/10/14 02:20:19;;;;;;;6.90;0.30;;;;;;;;;;5260570;28;20017;-78
2023/10/14 02:22:51;;;;;;;1.92;0.30;;;;;;;;;;5260934;28;20013;-78
2023/10/14 02:25:22;;;;;;;5.40;0.38;;;;;;;;;;5261347;28;20021;-78
2023/10/14 02:27:54;;;;;;;3.08;0.40;;;;;;;;;;5260504;28;20104;-78
2023/10/14 02:30:25;;;;;;;5.68;0.43;;;;;;;;;;5261017;28;20048;-78
2023/10/14 02:32:57;;;;;;;6.93;0.50;;;;;;;;;;5260807;28;20057;-78
2023/10/14 02:35:28;;;;;;;10.07;0.73;;;;;;;;;;5260339;28;20642;-78
2023/10/14 02:38:00;;;;;;;4.32;0.50;;;;;;;;;;5260945;28;20017;-78
2023/10/14 02:40:31;;;;;;;3.05;0.40;;;;;;;;;;5260383;28;20044;-78
2023/10/14 02:43:04;;;;;;;3.85;0.50;;;;;;;;;;5261080;28;20027;-78
2023/10/14 02:45:40;;;;;;;8.43;0.82;;;;;;;;;;5260910;28;20056;-78
2023/10/14 02:48:11;;;;;;;6.25;0.57;;;;;;;;;;5260028;28;20017;-78
2023/10/14 02:50:50;;;;;;;3.28;0.40;;;;;;;;;;5261053;28;20029;-78
2023/10/14 02:53:27;;;;;;;8.82;0.50;;;;;;;;;;5261351;28;20460;-79
2023/10/14 02:56:04;;;;;;;7.00;0.47;;;;;;;;;;5260149;28;20475;-78
2023/10/14 02:58:36;;;;;;;6.45;0.65;;;;;;;;;;5260694;28;20017;-78
2023/10/14 03:01:12;;;;;;;7.77;0.83;;;;;;;;;;5260666;28;20567;-79
2023/10/14 03:03:46;;;;;;;9.77;0.90;;;;;;;;;;5260173;28;20268;-78
2023/10/14 03:06:20;;;;;;;7.82;1.00;;;;;;;;;;5260947;28;20033;-79
2023/10/14 03:08:58;;;;;;;5.25;0.50;;;;;;;;;;5259659;28;20113;-77
2023/10/14 03:11:31;;;;;;;9.55;0.70;;;;;;;;;;5260487;28;20028;-78
2023/10/14 03:14:02;;;;;;;7.70;0.60;;;;;;;;;;5260830;28;20009;-78
2023/10/14 03:16:35;;;;;;;6.88;0.65;;;;;;;;;;5259894;28;20062;-77
2023/10/14 03:19:07;;;;;;;6.95;0.80;;;;;;;;;;5260615;28;20422;-77
2023/10/14 03:21:52;;;;;;;7.20;0.75;;;;;;;;;;5260367;28;20103;-78
2023/10/14 03:24:25;;;;;;;5.57;0.50;;;;;;;;;;5259866;28;20100;-78
2023/10/14 03:27:07;;;;;;;5.38;0.60;;;;;;;;;;5260472;28;20025;-77
2023/10/14 03:29:39;;;;;;;7.75;0.90;;;;;;;;;;5263383;28;20025;-78
2023/10/14 03:32:16;;;;;;;5.00;0.88;;;;;;;;;;5264153;28;20052;-78
2023/10/14 03:34:47;;;;;;;6.80;0.60;;;;;;;;;;5264315;28;20056;-78
2023/10/14 03:37:25;;;;;;;7.95;1.95;;;;;;;;;;5264008;28;20072;-77
2023/10/14 03:40:54;;;;;;;9.27;1.03;;;;;;;;;;5264288;28;20441;-77
2023/10/14 03:42:54;;;;;;;9.05;0.80;;;;;;;;;;5263778;28;20747;-78
2023/10/14 03:45:29;;;;;;;8.43;0.60;;;;;;;;;;5263425;28;20013;-77
2023/10/14 03:48:08;;;;;;;4.97;0.68;;;;;;;;;;5264229;28;20024;-77
2023/10/14 03:50:39;;;;;;;7.45;0.60;;;;;;;;;;5264091;28;20483;-78
2023/10/14 03:53:12;;;;;;;6.50;0.60;;;;;;;;;;5263174;28;20013;-78
2023/10/14 03:55:43;;;;;;;8.27;0.60;;;;;;;;;;5264097;28;20025;-78
2023/10/14 03:58:15;;;;;;;6.25;0.50;;;;;;;;;;5263057;28;20021;-78
2023/10/14 04:00:48;;;;;;;7.10;0.50;;;;;;;;;;5263646;28;20418;-78
2023/10/14 04:06:11;;;;;;;6.25;0.95;;;;;;;;;;5263333;28;20472;-77
2023/10/14 04:08:48;;;;;;;7.00;0.70;;;;;;;;;;5263805;28;20024;-78
2023/10/14 04:11:25;;;;;;;9.77;0.60;;;;;;;;;;5263831;28;20024;-78
2023/10/14 04:14:03;;;;;;;8.02;1.35;;;;;;;;;;5262827;28;20107;-78
2023/10/14 04:19:27;;;;;;;6.97;0.70;;;;;;;;;;5263232;28;20167;-79
2023/10/14 04:22:16;;;;;;;9.40;0.90;;;;;;;;;;5263426;28;20021;-78
2023/10/14 04:24:47;;;;;;;10.98;0.60;;;;;;;;;;5263343;28;20040;-79
2023/10/14 04:30:10;;;;;;;8.55;0.85;;;;;;;;;;5263184;28;20036;-79
2023/10/14 04:35:33;;;;;;;8.73;0.80;;;;;;;;;;5231903;28;20116;-79
2023/10/14 04:38:17;;;;;;;7.70;1.08;;;;;;;;;;5263089;28;20543;-78
2023/10/14 04:40:58;;;;;;;8.07;1.13;;;;;;;;;;5261589;28;20025;-79
2023/10/14 04:48:59;;;;;;;9.40;0.60;;;;;;;;;;5261808;28;20360;-78
2023/10/14 04:51:37;;;;;;;4.80;0.77;;;;;;;;;;5262704;28;20127;-79
2023/10/14 04:54:09;;;;;;;5.82;0.50;;;;;;;;;;5261398;28;20021;-78
2023/10/14 04:56:45;;;;;;;6.65;0.73;;;;;;;;;;5261951;28;20019;-78
2023/10/14 04:59:24;;;;;;;6.60;0.95;;;;;;;;;;5262667;28;20017;-79
2023/10/14 05:01:55;;;;;;;8.30;0.70;;;;;;;;;;5262114;28;20025;-80
2023/10/14 05:04:30;;;;;;;8.07;0.90;;;;;;;;;;5262997;28;20082;-78
2023/10/14 05:07:05;;;;;;;9.95;0.65;;;;;;;;;;5262905;28;20017;-79
2023/10/14 05:09:39;;;;;;;5.82;0.63;;;;;;;;;;5262135;28;20048;-79
2023/10/14 05:12:17;;;;;;;6.60;0.70;;;;;;;;;;5261175;28;20432;-80
2023/10/14 05:14:48;;;;;;;10.57;0.70;;;;;;;;;;5260241;28;20092;-79
2023/10/14 05:17:25;;;;;;;7.85;0.60;;;;;;;;;;5259824;28;20112;-80
2023/10/14 05:20:00;;;;;;;6.93;0.88;;;;;;;;;;5261752;28;20028;-80
2023/10/14 05:22:41;;;;;;;8.75;0.93;;;;;;;;;;5259015;28;20013;-79
2023/10/14 05:25:15;;;;;;;7.47;1.73;;;;;;;;;;5260346;28;20024;-79
2023/10/14 05:27:54;;;;;;;7.65;0.50;;;;;;;;;;5261324;28;20527;-78
2023/10/14 05:30:33;;;;;;;;;;;;;;;;;;5261765;28;20099;-79
2023/10/14 05:33:06;;;;;;;14.52;1.08;;;;;;;;;;5261821;28;19928;-79
2023/10/14 05:35:38;;;;;;;9.23;0.70;;;;;;;;;;5262232;28;20104;-79
2023/10/14 05:38:10;;;;;;;6.95;0.65;;;;;;;;;;5261400;28;20115;-79
2023/10/14 05:40:41;;;;;;;9.70;0.60;;;;;;;;;;5261980;28;20017;-79
2023/10/14 05:43:12;;;;;;;6.82;0.50;;;;;;;;;;5261923;28;20380;-80
2023/10/14 05:45:46;;;;;;;6.97;0.60;;;;;;;;;;5261047;28;20031;-78
2023/10/14 05:48:17;;;;;;;5.18;0.60;;;;;;;;;;5262351;28;20025;-78
2023/10/14 05:50:49;;;;;;;7.07;0.80;;;;;;;;;;5260200;28;20021;-80
2023/10/14 05:53:20;;;;;;;7.78;0.57;;;;;;;;;;5262770;28;20013;-81
2023/10/14 05:56:14;;;;;;;5.55;0.57;;;;;;;;;;5262615;28;20031;-80
2023/10/14 05:58:52;;;;;;;6.22;0.60;;;;;;;;;;5260800;28;20734;-79
2023/10/14 06:01:24;;;;;;;5.15;0.63;;;;;;;;;;5260918;28;20066;-78
2023/10/14 06:03:56;;;;;;;6.30;0.50;;;;;;;;;;5260526;28;20036;-78
2023/10/14 06:06:27;;;;;;;8.05;0.55;;;;;;;;;;5261200;28;20439;-79
2023/10/14 06:09:00;;;;;;;6.20;1.00;;;;;;;;;;5261596;28;20043;-79
2023/10/14 06:11:31;;;;;;;7.13;0.98;;;;;;;;;;5261472;28;20029;-79
2023/10/14 06:14:02;;;;;;;7.10;0.90;;;;;;;;;;5261334;28;20029;-78
2023/10/14 06:16:34;;;;;;;7.63;0.77;;;;;;;;;;5261305;28;20067;-78
2023/10/14 06:19:05;;;;;;;5.50;0.50;;;;;;;;;;5260999;28;20033;-81
2023/10/14 06:21:36;;;;;;;9.18;1.15;;;;;;;;;;5261757;28;20103;-79
2023/10/14 06:24:10;;;;;;;9.25;0.80;;;;;;;;;;5261003;28;20053;-79
2023/10/14 06:26:42;;;;;;;6.32;0.70;;;;;;;;;;5260118;28;20033;-78
2023/10/14 06:29:13;;;;;;;8.13;0.60;;;;;;;;;;5260810;28;20029;-79
2023/10/14 06:31:45;;;;;;;6.85;0.50;;;;;;;;;;5260677;28;20041;-80
2023/10/14 06:34:16;;;;;;;7.10;0.60;;;;;;;;;;5260595;28;20017;-79
2023/10/14 06:36:47;;;;;;;7.88;0.68;;;;;;;;;;5260618;28;20104;-78
2023/10/14 06:39:26;;;;;;;6.72;0.65;;;;;;;;;;5261369;28;20321;-80
2023/10/14 06:41:58;;;;;;;6.47;0.60;;;;;;;;;;5260002;28;20456;-78
2023/10/14 06:44:31;;;;;;;7.43;0.70;;;;;;;;;;5260748;28;20029;-76
2023/10/14 06:47:03;;;;;;;9.50;0.70;;;;;;;;;;5260189;28;20025;-77
2023/10/14 06:49:36;;;;;;;7.63;0.70;;;;;;;;;;5260993;28;20024;-77
2023/10/14 06:52:11;;;;;;;6.88;0.60;;;;;;;;;;5260675;28;20419;-77
2023/10/14 06:54:43;;;;;;;7.10;0.70;;;;;;;;;;5260294;28;20196;-80
2023/10/14 06:57:14;;;;;;;5.80;0.57;;;;;;;;;;5261515;28;20020;-76
2023/10/14 06:59:45;;;;;;;7.93;0.95;;;;;;;;;;5260783;28;20036;-78
2023/10/14 07:02:18;;;;;;;7.20;1.02;;;;;;;;;;5261027;28;20039;-80
2023/10/14 07:04:50;;;;;;;7.50;1.05;;;;;;;;;;5264507;28;20015;-80
2023/10/14 07:07:21;;;;;;;5.18;1.00;;;;;;;;;;5265196;28;20017;-81
2023/10/14 07:09:52;;;;;;;10.70;0.80;;;;;;;;;;5264284;28;20456;-81
2023/10/14 07:12:23;;;;;;;7.70;1.23;;;;;;;;;;5265168;28;20029;-81
2023/10/14 07:14:54;;;;;;;6.80;0.70;;;;;;;;;;5264173;28;20020;-82
2023/10/14 07:17:28;;;;;;;5.53;0.73;;;;;;;;;;5265027;28;20025;-83
2023/10/14 07:19:59;;;;;;;9.23;1.35;;;;;;;;;;5264873;28;20021;-82
2023/10/14 07:22:32;;;;;;;5.32;0.50;;;;;;;;;;5264801;28;20078;-81
2023/10/14 07:25:05;;;;;;;6.30;0.60;;;;;;;;;;5266865;28;20440;-79
2023/10/14 07:27:37;;;;;;;6.18;0.80;;;;;;;;;;5264628;28;20063;-80
2023/10/14 07:30:14;;;;;;;5.78;0.50;;;;;;;;;;5263793;28;20035;-80
2023/10/14 07:32:46;;;;;;;6.43;0.60;;;;;;;;;;5264003;28;20408;-81
2023/10/14 07:35:18;;;;;;;6.63;0.90;;;;;;;;;;5264343;28;20024;-80
2023/10/14 07:37:51;;;;;;;6.13;0.55;;;;;;;;;;5263498;28;20104;-80
2023/10/14 07:40:27;;;;;;;7.15;0.73;;;;;;;;;;5264631;28;20051;-82
2023/10/14 07:43:05;;;;;;;8.63;0.98;;;;;;;;;;5264178;28;20408;-81
2023/10/14 07:45:37;;;;;;;5.35;0.82;;;;;;;;;;5264034;28;20025;-80
2023/10/14 07:48:10;;;;;;;10.30;0.80;;;;;;;;;;5263899;28;20024;-81
2023/10/14 07:50:42;;;;;;;8.30;0.80;;;;;;;;;;5263172;28;20472;-82
2023/10/14 07:53:14;;;;;;;8.93;0.77;;;;;;;;;;5263967;28;20021;-81
2023/10/14 07:55:49;;;;;;;6.97;0.93;;;;;;;;;;5263902;28;20017;-80
2023/10/14 07:58:23;;;;;;;7.60;1.00;;;;;;;;;;5263274;28;20025;-80
2023/10/14 08:00:55;;;;;;;7.40;0.80;;;;;;;;;;5263500;28;20031;-79
2023/10/14 08:03:27;;;;;;;11.15;1.27;;;;;;;;;;5263999;28;20406;-79
2023/10/14 08:05:59;;;;;;;13.45;1.20;;;;;;;;;;5263153;28;20033;-81
2023/10/14 08:08:31;;;;;;;7.82;1.27;;;;;;;;;;5263631;28;20024;-81
2023/10/14 08:11:04;;;;;;;6.38;0.82;;;;;;;;;;5263188;28;20460;-83
2023/10/14 08:13:35;;;;;;;9.48;1.25;;;;;;;;;;5265166;28;20020;-82
2023/10/14 08:16:07;;;;;;;9.55;0.70;;;;;;;;;;5265134;28;20039;-83
2023/10/14 08:18:41;;;;;;;12.23;0.90;;;;;;;;;;5262968;28;20263;-84
2023/10/14 08:21:13;;;;;;;6.20;0.60;;;;;;;;;;5263827;28;20407;-84
2023/10/14 08:23:44;;;;;;;10.25;0.60;;;;;;;;;;5263216;28;20016;-83
2023/10/14 08:26:16;;;;;;;6.35;0.98;;;;;;;;;;5270337;28;20449;-82
2023/10/14 08:28:49;;;;;;;6.55;0.80;;;;;;;;;;5277198;28;20026;-84
2023/10/14 08:31:20;;;;;;;6.22;1.10;;;;;;;;;;5284330;28;20403;-83
2023/10/14 08:33:51;;;;;;;10.15;0.80;;;;;;;;;;5283144;28;20017;-82
2023/10/14 08:36:23;;;;;;;11.90;0.95;;;;;;;;;;5284342;28;20066;-84
2023/10/14 08:38:54;;;;;;;7.25;0.60;;;;;;;;;;5284352;28;20028;-84
2023/10/14 08:41:26;;;;;;;7.32;0.73;;;;;;;;;;5283466;28;20040;-81
2023/10/14 08:44:00;;;;;;;7.07;0.68;;;;;;;;;;5283689;28;20032;-77
2023/10/14 08:46:35;;;;;;;7.00;0.50;;;;;;;;;;5283067;28;20024;-82
2023/10/14 08:49:08;;;;;;;3.80;0.60;;;;;;;;;;5284143;28;20045;-85
2023/10/14 08:51:42;;;;;;;5.15;0.60;;;;;;;;;;5283861;28;20386;-82
2023/10/14 08:54:14;;;;;;;6.50;0.70;;;;;;;;;;5283118;28;20033;-82
2023/10/14 08:56:48;;;;;;;7.38;0.65;;;;;;;;;;5283339;28;20028;-81
2023/10/14 08:59:19;;;;;;;10.38;0.80;;;;;;;;;;5284471;28;20455;-79
2023/10/14 09:01:52;;;;;;;10.05;0.93;;;;;;;;;;5282874;28;20074;-82
2023/10/14 09:04:29;;;;;;;6.60;0.63;;;;;;;;;;5281000;28;20430;-83
2023/10/14 09:07:01;;;;;;;8.13;0.80;;;;;;;;;;5283566;28;20021;-75
2023/10/14 09:09:33;;;;;;;10.63;1.10;;;;;;;;;;5282550;28;20016;-72
2023/10/14 09:12:10;;;;;;;7.82;1.10;;;;;;;;;;5283203;28;20085;-77
2023/10/14 09:14:42;;;;;;;6.25;0.95;;;;;;;;;;5282604;28;20058;-79
2023/10/14 09:17:15;;;;;;;6.85;0.70;;;;;;;;;;5283168;28;20065;-75
2023/10/14 09:19:47;;;;;;;8.68;0.80;;;;;;;;;;5282659;28;20021;-75
2023/10/14 09:22:23;;;;;;;6.80;0.75;;;;;;;;;;5282359;28;20017;-75
2023/10/14 09:24:58;;;;;;;6.20;0.60;;;;;;;;;;5282458;28;20025;-75
2023/10/14 09:27:30;;;;;;;9.98;1.55;;;;;;;;;;5281973;28;20066;-75
2023/10/14 09:30:03;;;;;;;7.35;0.60;;;;;;;;;;5282008;28;20025;-75
2023/10/14 09:32:35;;;;;;;5.68;0.52;;;;;;;;;;5282455;28;20068;-75
2023/10/14 09:35:06;;;;;;;9.93;1.33;;;;;;;;;;5280805;28;20013;-75
2023/10/14 09:37:39;;;;;;;9.30;0.80;;;;;;;;;;5279871;28;20066;-75
2023/10/14 09:40:13;;;;;;;7.38;1.17;;;;;;;;;;5280531;28;20008;-75
2023/10/14 09:42:44;;;;;;;9.73;0.68;;;;;;;;;;5279408;28;20044;-75
2023/10/14 09:45:19;;;;;;;11.02;1.27;;;;;;;;;;5281183;28;20040;-75
2023/10/14 09:47:58;;;;;;;8.05;0.73;;;;;;;;;;5298384;27;20400;-75
2023/10/14 09:50:31;;;;;;;5.88;0.65;;;;;;;;;;5299489;28;20040;-74
2023/10/14 09:53:03;;;;;;;8.82;1.05;;;;;;;;;;5300143;28;20459;-74
2023/10/14 09:55:37;;;;;;;5.25;0.50;;;;;;;;;;5299937;28;20024;-75
2023/10/14 09:58:08;;;;;;;6.18;0.82;;;;;;;;;;5299255;28;20021;-76
2023/10/14 10:00:40;;;;;;;8.98;1.35;;;;;;;;;;5299603;28;20078;-76
2023/10/14 10:03:12;;;;;;;4.55;0.50;;;;;;;;;;5299761;28;20051;-76
2023/10/14 10:05:48;;;;;;;4.90;0.90;;;;;;;;;;5298946;28;20036;-76
2023/10/14 10:08:39;;;;;;;6.05;0.88;;;;;;;;;;5300352;27;20028;-76
2023/10/14 10:11:11;;;;;;;6.65;0.50;;;;;;;;;;5299120;28;20094;-80
2023/10/14 10:13:44;;;;;;;5.25;0.73;;;;;;;;;;5299913;28;20898;-81
2023/10/14 10:16:20;;;;;;;7.68;0.65;;;;;;;;;;5299149;28;20424;-78
2023/10/14 10:18:56;;;;;;;4.47;0.65;;;;;;;;;;5298697;28;20459;-78
2023/10/14 10:21:29;;;;;;;4.78;0.50;;;;;;;;;;5299543;28;20443;-77
2023/10/14 10:24:24;;;;;;;7.00;0.60;;;;;;;;;;5298538;28;20027;-78
2023/10/14 10:27:04;;;;;;;4.18;0.47;;;;;;;;;;5298753;28;20028;-78
2023/10/14 10:29:47;;;;;;;3.65;0.40;;;;;;;;;;5298925;28;20012;-78
2023/10/14 10:32:19;;;;;;;3.58;0.55;;;;;;;;;;5298959;28;20494;-78
2023/10/14 10:35:12;;;;;;;5.65;0.50;;;;;;;;;;5299030;28;20028;-78
2023/10/14 10:37:43;;;;;;;6.70;0.50;;;;;;;;;;5299162;27;20105;-79
2023/10/14 10:40:22;;;;;;;4.60;0.50;;;;;;;;;;5298694;28;20062;-79
2023/10/14 10:42:57;;;;;;;7.82;0.75;;;;;;;;;;5298522;28;20382;-79
2023/10/14 10:45:32;;;;;;;5.22;0.70;;;;;;;;;;5298539;28;20402;-75
2023/10/14 10:48:07;;;;;;;6.60;0.50;;;;;;;;;;5298373;28;20036;-79
2023/10/14 10:50:40;;;;;;;4.93;0.70;;;;;;;;;;5298932;28;20087;-79
2023/10/14 10:53:16;;;;;;;4.35;0.50;;;;;;;;;;5298165;28;20044;-78
2023/10/14 10:55:48;;;;;;;7.72;0.60;;;;;;;;;;5298359;28;20028;-78
2023/10/14 10:58:20;;;;;;;4.75;0.50;;;;;;;;;;5290781;28;20016;-78
2023/10/14 11:00:52;;;;;;;5.35;0.43;;;;;;;;;;5283876;28;20040;-78
2023/10/14 11:03:24;;;;;;;4.40;0.63;;;;;;;;;;5284675;28;20101;-79
2023/10/14 11:05:56;;;;;;;4.80;0.60;;;;;;;;;;5284438;28;20107;-78
2023/10/14 11:08:27;;;;;;;6.75;0.88;;;;;;;;;;5283686;28;20122;-78
2023/10/14 11:11:01;;;;;;;4.90;0.60;;;;;;;;;;5284668;28;20069;-79
2023/10/14 11:13:32;;;;;;;7.05;0.52;;;;;;;;;;5284612;28;20099;-81
2023/10/14 11:16:12;;;;;;;5.07;0.50;;;;;;;;;;5283740;28;20556;-78
2023/10/14 11:18:47;;;;;;;4.45;0.40;;;;;;;;;;5284266;28;20273;-78
2023/10/14 11:21:18;;;;;;;4.40;0.60;;;;;;;;;;5284138;28;20370;-78
2023/10/14 11:23:53;;;;;;;7.68;1.23;;;;;;;;;;5284286;28;20017;-78
2023/10/14 11:26:24;;;;;;;5.85;1.00;;;;;;;;;;5284072;28;20038;-78
2023/10/14 11:28:58;;;;;;;5.85;0.55;;;;;;;;;;5282298;28;20020;-77
2023/10/14 11:31:30;;;;;;;5.47;0.57;;;;;;;;;;5283220;28;20460;-77
2023/10/14 11:34:01;;;;;;;4.35;0.40;;;;;;;;;;5283835;28;20032;-75
2023/10/14 11:36:32;;;;;;;5.18;0.57;;;;;;;;;;5282940;28;20013;-78
2023/10/14 11:39:12;;;;;;;3.83;0.60;;;;;;;;;;5283412;28;20028;-76
2023/10/14 11:41:43;;;;;;;4.53;0.50;;;;;;;;;;5283852;28;20752;-78
2023/10/14 11:44:17;;;;;;;6.07;0.70;;;;;;;;;;5283003;28;20032;-78
2023/10/14 11:46:50;;;;;;;3.90;0.57;;;;;;;;;;5283267;28;20796;-80
2023/10/14 11:49:23;;;;;;;5.70;0.57;;;;;;;;;;5283436;28;20680;-80
2023/10/14 11:51:55;;;;;;;5.22;0.50;;;;;;;;;;5283514;28;20480;-79
2023/10/14 11:54:26;;;;;;;7.18;0.57;;;;;;;;;;5283858;28;20100;-79
2023/10/14 11:56:57;;;;;;;5.22;0.60;;;;;;;;;;5282992;28;20075;-79
2023/10/14 11:59:28;;;;;;;6.03;0.60;;;;;;;;;;5283720;28;20275;-80
2023/10/14 12:01:59;;;;;;;6.78;0.60;;;;;;;;;;5283620;28;20271;-81
2023/10/14 12:04:30;;;;;;;4.50;0.50;;;;;;;;;;5282672;28;20360;-80
2023/10/14 12:07:04;;;;;;;5.32;0.50;;;;;;;;;;5283253;28;20291;-81
2023/10/14 12:09:35;;;;;;;4.95;0.60;;;;;;;;;;5282517;28;20755;-80
2023/10/14 12:12:08;;;;;;;4.53;0.40;;;;;;;;;;5282625;28;20033;-80
2023/10/14 12:14:39;;;;;;;4.97;0.68;;;;;;;;;;5283190;28;20058;-80
2023/10/14 12:17:12;;;;;;;6.50;0.60;;;;;;;;;;5283157;28;20402;-79
2023/10/14 12:19:43;;;;;;;4.43;0.60;;;;;;;;;;5283010;28;20086;-79
2023/10/14 12:22:14;;;;;;;5.20;0.40;;;;;;;;;;5283185;28;20124;-79
2023/10/14 12:24:47;;;;;;;6.70;1.15;;;;;;;;;;5282091;28;20016;-79
2023/10/14 12:27:25;;;;;;;5.47;0.50;;;;;;;;;;5283075;28;20445;-80
2023/10/14 12:30:00;;;;;;;5.15;0.60;;;;;;;;;;5283022;28;20044;-79
2023/10/14 12:32:31;;;;;;;5.82;0.50;;;;;;;;;;5282236;28;20049;-78
2023/10/14 12:35:11;;;;;;;5.57;0.60;;;;;;;;;;5282760;28;20042;-79
2023/10/14 12:37:43;;;;;;;8.00;0.70;;;;;;;;;;5282699;28;20263;-79
2023/10/14 12:40:14;;;;;;;5.93;0.50;;;;;;;;;;5281846;28;20031;-78
2023/10/14 12:42:46;;;;;;;5.05;0.80;;;;;;;;;;5282458;28;20016;-79
2023/10/14 12:45:23;;;;;;;3.97;0.60;;;;;;;;;;5283021;28;20030;-80
2023/10/14 12:48:01;;;;;;;7.38;0.52;;;;;;;;;;5282256;28;20082;-81
2023/10/14 12:50:33;;;;;;;2.38;0.35;;;;;;;;;;5282498;28;20024;-79
2023/10/14 12:53:05;;;;;;;4.88;0.70;;;;;;;;;;5282068;28;20323;-80
2023/10/14 12:55:41;;;;;;;2.70;0.60;;;;;;;;;;5282398;28;20016;-80
2023/10/14 12:58:12;;;;;;;3.40;0.50;;;;;;;;;;5282502;28;20035;-80
2023/10/14 13:00:43;;;;;;;4.63;0.40;;;;;;;;;;5281660;28;20367;-79
2023/10/14 13:03:17;;;;;;;5.53;0.47;;;;;;;;;;5282526;28;20313;-80
2023/10/14 13:05:52;;;;;;;2.67;0.30;;;;;;;;;;5282159;28;20020;-80
2023/10/14 13:08:23;;;;;;;4.47;0.30;;;;;;;;;;5281530;28;20028;-79
2023/10/14 13:10:54;;;;;;;2.40;0.60;;;;;;;;;;5281972;28;20537;-79
2023/10/14 13:13:26;;;;;;;6.55;0.77;;;;;;;;;;5282000;28;20694;-78
2023/10/14 13:15:57;;;;;;;5.20;0.45;;;;;;;;;;5281509;28;20097;-79
2023/10/14 13:18:28;;;;;;;3.72;0.40;;;;;;;;;;5282316;28;20017;-78
2023/10/14 13:21:00;;;;;;;3.40;0.35;;;;;;;;;;5281162;28;20017;-78
2023/10/14 13:23:31;;;;;;;4.40;0.40;;;;;;;;;;5282069;28;20013;-77
2023/10/14 13:26:02;;;;;;;3.65;0.40;;;;;;;;;;5281847;28;20369;-78
2023/10/14 13:28:33;;;;;;;3.37;0.40;;;;;;;;;;5281299;28;20021;-77
2023/10/14 13:31:04;;;;;;;7.57;0.60;;;;;;;;;;5281788;28;20350;-77
2023/10/14 13:33:36;;;;;;;3.70;0.60;;;;;;;;;;5282010;28;20063;-78
2023/10/14 13:36:09;;;;;;;4.53;0.50;;;;;;;;;;5281001;28;20450;-77
2023/10/14 13:38:41;;;;;;;3.20;0.40;;;;;;;;;;5281654;28;20432;-77
2023/10/14 13:41:15;;;;;;;3.13;0.37;;;;;;;;;;5281745;28;20103;-77
2023/10/14 13:43:46;;;;;;;4.97;0.40;;;;;;;;;;5280647;28;20311;-78
2023/10/14 13:46:20;;;;;;;5.38;0.50;;;;;;;;;;5281822;28;20049;-78
2023/10/14 13:48:56;;;;;;;8.10;1.02;;;;;;;;;;5280735;28;20028;-78
2023/10/14 13:51:28;;;;;;;4.38;0.43;;;;;;;;;;5282065;28;20075;-78
2023/10/14 13:53:59;;;;;;;7.50;0.70;;;;;;;;;;5281753;28;20039;-78
2023/10/14 13:56:31;;;;;;;4.47;0.70;;;;;;;;;;5280977;28;20063;-78
2023/10/14 13:59:04;;;;;;;6.78;0.55;;;;;;;;;;5281534;28;20271;-79
2023/10/14 14:01:36;;;;;;;6.28;0.40;;;;;;;;;;5281757;28;20023;-78
2023/10/14 14:04:09;;;;;;;2.65;0.32;;;;;;;;;;5280949;28;20013;-79
2023/10/14 14:06:42;;;;;;;2.05;0.20;;;;;;;;;;5281266;28;20063;-75
2023/10/14 14:09:14;;;;;;;1.27;0.30;;;;;;;;;;5281065;28;20498;-78
2023/10/14 14:11:46;;;;;;;2.72;0.30;;;;;;;;;;5279709;28;20017;-79
2023/10/14 14:14:17;;;;;;;1.25;0.20;;;;;;;;;;5281684;28;20127;-79
2023/10/14 14:16:51;;;;;;;2.77;0.20;;;;;;;;;;5280063;28;20383;-79
2023/10/14 14:19:22;;;;;;;1.77;0.20;;;;;;;;;;5281153;28;20315;-78
2023/10/14 14:21:53;;;;;;;2.60;0.30;;;;;;;;;;5280551;28;20024;-79
2023/10/14 14:24:25;;;;;;;2.13;0.30;;;;;;;;;;5280278;28;20474;-79
2023/10/14 14:26:56;;;;;;;2.30;0.52;;;;;;;;;;5281103;28;20115;-80
2023/10/14 14:29:27;;;;;;;3.53;0.30;;;;;;;;;;5281140;28;20021;-73
2023/10/14 14:31:58;;;;;;;5.72;0.70;;;;;;;;;;5280167;28;20404;-74
2023/10/14 14:34:30;;;;;;;4.63;0.30;;;;;;;;;;5284304;28;20622;-74
2023/10/14 14:37:02;;;;;;;4.40;0.40;;;;;;;;;;5284831;28;20605;-74
2023/10/14 14:39:33;;;;;;;4.70;0.50;;;;;;;;;;5284375;28;20653;-74
2023/10/14 14:42:04;;;;;;;5.63;0.60;;;;;;;;;;5284700;28;20024;-74
2023/10/14 14:44:35;;;;;;;5.47;0.40;;;;;;;;;;5284747;28;20354;-72
2023/10/14 14:47:06;;;;;;;6.22;0.75;;;;;;;;;;5283731;28;20052;-73
2023/10/14 14:49:37;;;;;;;3.55;0.60;;;;;;;;;;5284510;28;20410;-73
2023/10/14 14:52:10;;;;;;;4.47;0.80;;;;;;;;;;5284132;28;20617;-74
2023/10/14 14:54:42;;;;;;;4.75;0.65;;;;;;;;;;5284751;28;20020;-75
2023/10/14 14:57:13;;;;;;;2.90;0.30;;;;;;;;;;5284760;28;20029;-75
2023/10/14 14:59:45;;;;;;;4.18;0.45;;;;;;;;;;5283592;28;20021;-75
2023/10/14 15:02:16;;;;;;;5.63;0.60;;;;;;;;;;5285087;28;20409;-75
2023/10/14 15:04:48;;;;;;;3.38;0.50;;;;;;;;;;5284331;28;20055;-75
2023/10/14 15:07:21;;;;;;;4.78;0.52;;;;;;;;;;5283447;28;20036;-75
2023/10/14 15:09:52;;;;;;;5.10;0.43;;;;;;;;;;5282566;28;20464;-75
2023/10/14 15:12:24;;;;;;;3.85;0.50;;;;;;;;;;5282102;28;20029;-75
2023/10/14 15:14:57;;;;;;;5.20;0.50;;;;;;;;;;5281600;28;20463;-74
2023/10/14 15:17:29;;;;;;;5.78;0.75;;;;;;;;;;5282046;28;20033;-74
2023/10/14 15:20:00;;;;;;;7.65;0.50;;;;;;;;;;5282138;28;20043;-75
2023/10/14 15:22:32;;;;;;;4.68;0.50;;;;;;;;;;5281315;28;20020;-74
2023/10/14 15:25:05;;;;;;;5.22;0.65;;;;;;;;;;5279088;28;20017;-74
2023/10/14 15:27:36;;;;;;;3.75;0.40;;;;;;;;;;5282425;28;20040;-74
2023/10/14 15:30:11;;;;;;;3.45;0.32;;;;;;;;;;5283585;28;20009;-75
2023/10/14 15:32:48;;;;;;;3.75;0.40;;;;;;;;;;5283947;28;20070;-75
2023/10/14 15:35:25;;;;;;;3.75;0.40;;;;;;;;;;5283322;28;20415;-75
2023/10/14 15:37:57;;;;;;;7.07;0.50;;;;;;;;;;5283681;28;20023;-75